Yokosuka Fwf, Japan

7:05 PM JST on July 23, 2014 (GMT +0900)
Totsukaku-Kashiodai (I709) Elev 112 ft | 35.42 °N, 139.56 °E | Change Station

Current weather conditions updated 24 seconds ago

Partly Cloudy
Partly Cloudy
82.0 °F
Feels Like 89 °F
N
2.9
Wind Variable Wind from SSE
Gusts 4.9 mph

Tomorrow is forecast to be Cooler than today.

Today
High -- | Low -- °F
--% Chance of Precip.
Yesterday
High -- | Low -- °F
Precip. -- in
4:43 AM 6:52 PM
Waning Crescent, 11% visible
Pressure 29.62 in
Visibility 4.3 miles
Clouds Few 3000 ft
Heat Index 89 °F
Dew Point 75 °F
Humidity 80%
Rainfall 0.00 in
Snow Depth Not available.
UV 0 out of 12
Pollen Not available.
Air Quality Not available.
Flu Activity Not available.
METAR RJTT 230930Z 17011KT 7000 FEW030 BKN/// 28/24 Q1003 NOSIG RMK 1CU030 A2962

More Conditions Fewer Conditions

Pressure 29.62 in
Visibility 4.3 miles
Clouds Few 3000 ft
Heat Index 89 °F
Dew Point 75 °F
Humidity 80%
Rainfall 0.00 in
Snow Depth Not available.
UV 0 out of 12
Pollen Not available.
Air Quality Not available.
Flu Activity Not available.
METAR RJTT 230930Z 17011KT 7000 FEW030 BKN/// 28/24 Q1003 NOSIG RMK 1CU030 A2962

More Conditions Fewer Conditions

10-Day Weather Forecast

Almanac

Astronomy

Jul. 23, 2014 Rise Set
Actual Time 4:43 AM JST 6:52 PM JST
Civil Twilight 4:14 AM JST 7:20 PM JST
Nautical Twilight 3:39 AM JST 7:55 PM JST
Astronomical Twilight 3:01 AM JST 8:33 PM JST
Moon 1:31 AM JST 3:49 PM JST
Length of Visible Light 15h 06m
Length of Day
14h 09m
Tomorrow will be 1m 24s shorter.
Waning Crescent, 11% of the Moon is Illuminated
Today
Waning Crescent
Jul 26
New
Aug 3
First Quarter
Aug 10
Full
Aug 17
Last Quarter

Yesterday's Extremes

Country Highs Country Lows

Community

WunderPhotos

Upload Photos

1,736,535 photos uploaded!

Nearby

Snow Depth

Not available.

Earthquake Activity

City Distance Mag. Time & Date
No recent earthquake activity has been reported nearby.
Minimum magnitude displayed is 2.5.

Coastal Water Temperatures

Place Temperature
No Stations Reporting

Nearby Weather Stations

Station Location Temp. Heat Index Dew Point Humidity Wind Precip. Elev Updated Type
Totsukaku-Kashiodai, 横浜市 82.0 °F 89 °F 75 °F 80% SSE  at  2.9 mph 0.00 in / hr 112 ft 7:04 PM JST Rapid Fire
Green Town, Yokohama 84.0 °F 90 °F 72 °F 68% SSE  at  0.0 mph 0.00 in / hr 223 ft 7:05 PM JST Normal
kawasaki, Kawasaki 88.0 °F 93 °F 70 °F 55% South  at  0.2 mph 0.00 in / hr 25 ft 7:04 PM JST Rapid Fire
Machida 86.4 °F 92 °F 71 °F 61% West  at  0.0 mph 0.00 in / hr 232 ft 7:03 PM JST Normal
Central of Kanagawa, Atsugi 84.8 °F 91 °F 73 °F 67% SE  at  0.0 mph 0.00 in / hr 79 ft 7:05 PM JST Normal
Tamagawaen, Oota-city 86.0 °F 101 °F 80 °F 82% South  at  0.0 mph 0.00 in / hr 40 ft 7:04 PM JST Rapid Fire
ikuta,Japan, Kawasakishi 85.5 °F 93 °F 74 °F 69% SE  at  0.0 mph 0.00 in / hr 285 ft 6:57 PM JST Normal

Show More Stations Show Fewer Stations